createdAt,value
2022-08-03T00:01:49.157Z,101591.03
2022-08-03T00:04:15.690Z,101568.16
2022-08-03T00:06:42.211Z,101555.13
2022-08-03T00:09:09.376Z,101593.03
2022-08-03T00:11:36.285Z,101594.16
2022-08-03T00:14:04.382Z,101570.75
2022-08-03T00:16:30.838Z,101606.09
2022-08-03T00:18:57.331Z,101586.88
2022-08-03T00:21:24.059Z,101625.50
2022-08-03T00:23:51.481Z,101638.72
2022-08-03T00:26:20.475Z,101646.69
2022-08-03T00:28:46.975Z,101588.81
2022-08-03T00:31:13.867Z,101648.53
2022-08-03T00:33:58.994Z,101644.91
2022-08-03T00:36:28.122Z,101647.78
2022-08-03T00:38:55.418Z,101655.50
2022-08-03T00:41:22.174Z,101649.94
2022-08-03T00:43:48.724Z,101656.03
2022-08-03T00:46:19.247Z,101619.72
2022-08-03T00:48:49.238Z,101663.63
2022-08-03T00:51:15.898Z,101674.06
2022-08-03T00:53:42.924Z,101676.63
2022-08-03T00:56:09.451Z,101630.19
2022-08-03T00:58:35.987Z,101646.47
2022-08-03T01:01:02.506Z,101721.34
2022-08-03T01:03:29.007Z,101683.69
2022-08-03T01:06:07.368Z,101734.59
2022-08-03T01:08:48.649Z,101751.84
2022-08-03T01:11:28.898Z,101701.97
2022-08-03T01:14:19.243Z,101698.41
2022-08-03T01:16:58.658Z,101692.19
2022-08-03T01:19:43.773Z,101731.38
2022-08-03T01:22:38.069Z,101727.44
2022-08-03T01:25:34.336Z,101719.19
2022-08-03T01:28:28.678Z,101724.94
2022-08-03T01:31:01.569Z,101666.72
2022-08-03T01:33:57.266Z,101711.25
2022-08-03T01:36:27.938Z,101711.16
2022-08-03T01:39:00.261Z,101681.44
2022-08-03T01:41:31.698Z,101716.25
2022-08-03T01:44:30.133Z,101727.13
2022-08-03T01:47:02.222Z,101726.69
2022-08-03T01:49:31.905Z,101725.88
2022-08-03T01:52:04.448Z,101723.25
2022-08-03T01:54:46.432Z,101725.66
2022-08-03T01:57:13.891Z,101720.84
2022-08-03T01:59:42.041Z,101672.00
2022-08-03T02:02:28.073Z,101736.56
2022-08-03T02:05:01.324Z,101721.63
2022-08-03T02:07:29.794Z,101722.69
2022-08-03T02:09:58.732Z,101685.91
2022-08-03T02:12:26.789Z,101721.97
2022-08-03T02:14:54.045Z,101671.44
2022-08-03T02:17:39.145Z,101712.78
2022-08-03T02:20:08.042Z,101701.19
2022-08-03T02:22:35.954Z,101699.09
2022-08-03T02:25:02.498Z,101649.63
2022-08-03T02:27:34.144Z,101680.25
2022-08-03T02:30:04.550Z,101677.59
2022-08-03T02:32:39.562Z,101695.38
2022-08-03T02:35:14.747Z,101641.44
2022-08-03T02:37:58.018Z,101626.00
2022-08-03T02:40:27.955Z,101639.94
2022-08-03T02:42:58.826Z,101614.00
2022-08-03T02:45:27.931Z,101652.38
2022-08-03T02:47:59.790Z,101675.53
2022-08-03T02:50:27.125Z,101677.94
2022-08-03T02:52:56.986Z,101655.31
2022-08-03T02:55:27.333Z,101647.88
2022-08-03T02:57:55.501Z,101666.25
2022-08-03T03:00:27.296Z,101660.53
2022-08-03T03:02:58.488Z,101676.75
2022-08-03T03:05:54.711Z,101677.16
2022-08-03T03:08:17.777Z,101636.50
2022-08-03T03:10:47.915Z,101688.44
2022-08-03T03:13:15.856Z,101683.63
2022-08-03T03:15:44.878Z,101682.81
2022-08-03T03:18:12.644Z,101691.53
2022-08-03T03:20:39.804Z,101634.25
2022-08-03T03:23:08.953Z,101702.44
2022-08-03T03:25:36.317Z,101688.91
2022-08-03T03:28:03.053Z,101642.84
2022-08-03T03:30:30.223Z,101695.09
2022-08-03T03:32:58.424Z,101702.56
2022-08-03T03:35:26.088Z,101699.00
2022-08-03T03:37:52.711Z,101693.84
2022-08-03T03:40:19.195Z,101704.06
2022-08-03T03:42:45.814Z,101699.47
2022-08-03T03:45:12.739Z,101692.22
2022-08-03T03:47:39.265Z,101660.50
2022-08-03T03:50:06.581Z,101680.97
2022-08-03T03:52:33.549Z,101646.19
2022-08-03T03:55:01.374Z,101692.38
2022-08-03T03:57:28.821Z,101685.47
2022-08-03T03:59:55.289Z,101660.72
2022-08-03T04:02:21.745Z,101676.84
2022-08-03T04:04:48.225Z,101662.03
2022-08-03T04:07:14.710Z,101684.41
2022-08-03T04:09:42.780Z,101693.59
2022-08-03T04:12:09.592Z,101706.59
2022-08-03T04:14:39.325Z,101685.91
2022-08-03T04:17:09.276Z,101697.75
2022-08-03T04:19:47.752Z,101691.41
2022-08-03T04:22:18.740Z,101686.91
2022-08-03T04:24:49.694Z,101648.94
2022-08-03T04:27:20.803Z,101700.13
2022-08-03T04:29:50.501Z,101731.50
2022-08-03T04:32:17.983Z,101744.56
2022-08-03T04:34:44.953Z,101741.59
2022-08-03T04:37:37.113Z,101702.03
2022-08-03T04:40:07.345Z,101770.31
2022-08-03T04:42:34.418Z,101725.09
2022-08-03T04:45:03.166Z,101777.97
2022-08-03T04:47:33.071Z,101770.63
2022-08-03T04:50:02.307Z,101764.38
2022-08-03T04:52:29.116Z,101802.53
2022-08-03T04:54:55.768Z,101737.59
2022-08-03T04:57:23.587Z,101784.41
2022-08-03T04:59:52.113Z,101795.41
2022-08-03T05:02:19.096Z,101769.91
2022-08-03T05:04:45.675Z,101758.59
2022-08-03T05:07:19.462Z,101808.47
2022-08-03T05:09:52.739Z,101804.66
2022-08-03T05:12:19.648Z,101748.94
2022-08-03T05:14:46.084Z,101740.44
2022-08-03T05:17:12.576Z,101796.78
2022-08-03T05:19:39.024Z,101787.22
2022-08-03T05:22:05.471Z,101772.91
2022-08-03T05:24:31.983Z,101773.91
2022-08-03T05:26:58.406Z,101768.28
2022-08-03T05:29:24.880Z,101764.84
2022-08-03T05:31:51.304Z,101713.38
2022-08-03T05:34:17.726Z,101711.75
2022-08-03T05:36:44.187Z,101752.47
2022-08-03T05:39:10.641Z,101714.59
2022-08-03T05:41:37.649Z,101676.53
2022-08-03T05:44:05.236Z,101741.47
2022-08-03T05:46:32.243Z,101732.81
2022-08-03T05:48:58.725Z,101722.94
2022-08-03T05:51:25.154Z,101682.19
2022-08-03T05:53:51.568Z,101666.25
2022-08-03T05:56:22.488Z,101660.19
2022-08-03T05:58:49.102Z,101708.16
2022-08-03T06:01:16.493Z,101698.78
2022-08-03T06:03:43.029Z,101689.78
2022-08-03T06:06:09.544Z,101689.50
2022-08-03T06:08:35.986Z,101683.59
2022-08-03T06:11:02.756Z,101630.84
2022-08-03T06:13:29.225Z,101629.06
2022-08-03T06:15:55.682Z,101658.34
2022-08-03T06:18:22.136Z,101648.63
2022-08-03T06:20:49.634Z,101658.78
2022-08-03T06:23:17.964Z,101619.59
2022-08-03T06:25:45.099Z,101595.03
2022-08-03T06:28:19.075Z,101630.81
2022-08-03T06:30:50.635Z,101584.56
2022-08-03T06:33:17.096Z,101597.16
2022-08-03T06:35:45.207Z,101583.94
2022-08-03T06:38:12.025Z,101570.88
2022-08-03T06:40:38.576Z,101579.66
2022-08-03T06:43:06.120Z,101562.84
2022-08-03T06:45:36.168Z,101542.03
2022-08-03T06:48:09.050Z,101557.31
2022-08-03T06:50:37.117Z,101550.31
2022-08-03T06:53:04.788Z,101543.72
2022-08-03T06:55:31.946Z,101540.84
2022-08-03T06:57:59.751Z,101539.09
2022-08-03T07:00:29.976Z,101533.28
2022-08-03T07:02:58.446Z,101536.03
2022-08-03T07:05:25.573Z,101532.03
2022-08-03T07:07:55.390Z,101532.50
2022-08-03T07:10:21.873Z,101492.34
2022-08-03T07:12:55.693Z,101536.88
2022-08-03T07:15:55.843Z,101535.72
2022-08-03T07:18:09.900Z,101523.13
2022-08-03T07:20:36.387Z,101479.69
2022-08-03T07:23:02.900Z,101521.44
2022-08-03T07:25:29.373Z,101536.91
2022-08-03T07:27:55.896Z,101499.63
2022-08-03T07:30:22.888Z,101513.47
2022-08-03T07:32:50.404Z,101496.50
2022-08-03T07:35:24.211Z,101504.97
2022-08-03T07:37:54.066Z,101474.09
2022-08-03T07:40:21.361Z,101452.44
2022-08-03T07:42:47.833Z,101449.16
2022-08-03T07:45:18.697Z,101493.66
2022-08-03T07:47:46.202Z,101458.66
2022-08-03T07:50:20.223Z,101487.31
2022-08-03T07:52:46.693Z,101480.53
2022-08-03T07:55:13.178Z,101475.69
2022-08-03T07:57:39.793Z,101468.28
2022-08-03T08:00:08.401Z,101440.06
2022-08-03T08:02:35.066Z,101456.75
2022-08-03T08:05:05.503Z,101452.81
2022-08-03T08:07:32.561Z,101461.31
2022-08-03T08:09:59.032Z,101434.13
2022-08-03T08:12:25.477Z,101460.63
2022-08-03T08:14:51.979Z,101465.50
2022-08-03T08:17:18.472Z,101475.22
2022-08-03T08:19:51.588Z,101451.94
2022-08-03T08:22:25.852Z,101426.53
2022-08-03T08:24:56.871Z,101463.38
2022-08-03T08:27:23.524Z,101455.75
2022-08-03T08:29:56.319Z,101469.47
2022-08-03T08:32:25.357Z,101414.53
2022-08-03T08:34:51.770Z,101461.44
2022-08-03T08:37:18.217Z,101468.13
2022-08-03T08:39:44.650Z,101464.72
2022-08-03T08:42:11.081Z,101397.16
2022-08-03T08:44:37.589Z,101453.13
2022-08-03T08:47:04.095Z,101458.19
2022-08-03T08:49:32.880Z,101454.03
2022-08-03T08:52:01.653Z,101413.88
2022-08-03T08:54:29.699Z,101460.06
2022-08-03T08:57:00.968Z,101473.97
2022-08-03T08:59:27.649Z,101467.91
2022-08-03T09:02:14.235Z,101424.25
2022-08-03T09:04:40.849Z,101471.94
2022-08-03T09:07:19.758Z,101469.34
2022-08-03T09:10:10.542Z,101477.31
2022-08-03T09:12:48.931Z,101471.69
2022-08-03T09:15:19.249Z,101475.56
2022-08-03T09:17:50.646Z,101469.53
2022-08-03T09:20:18.480Z,101469.66
2022-08-03T09:23:24.940Z,101473.09
2022-08-03T09:26:00.143Z,101427.13
2022-08-03T09:28:59.478Z,101483.75
2022-08-03T09:31:38.935Z,101478.31
2022-08-03T09:34:13.175Z,101472.34
2022-08-03T09:36:47.020Z,101471.75
2022-08-03T09:39:40.948Z,101457.44
2022-08-03T09:42:15.441Z,101476.09
2022-08-03T09:44:44.148Z,101474.59
2022-08-03T09:47:12.880Z,101466.19
2022-08-03T09:49:41.186Z,101469.50
2022-08-03T09:52:37.582Z,101459.53
2022-08-03T09:56:30.586Z,101410.91
2022-08-03T09:58:06.174Z,101472.97
2022-08-03T10:00:32.623Z,101430.47
2022-08-03T10:03:04.733Z,101468.00
2022-08-03T10:05:34.045Z,101426.03
2022-08-03T10:08:00.502Z,101464.28
2022-08-03T10:10:31.110Z,101461.63
2022-08-03T10:13:00.051Z,101426.41
2022-08-03T10:16:21.153Z,101468.88
2022-08-03T10:18:13.893Z,101462.41
2022-08-03T10:20:46.753Z,101455.31
2022-08-03T10:23:14.430Z,101470.53
2022-08-03T10:25:41.370Z,101422.28
2022-08-03T10:28:12.565Z,101456.38
2022-08-03T10:30:43.964Z,101450.47
2022-08-03T10:33:51.252Z,101461.00
2022-08-03T10:36:06.728Z,101449.34
2022-08-03T10:38:38.581Z,101453.47
2022-08-03T10:41:07.834Z,101462.69
2022-08-03T10:43:39.359Z,101448.38
2022-08-03T10:46:08.539Z,101451.50
2022-08-03T10:48:36.134Z,101416.38
2022-08-03T10:51:03.226Z,101449.22
2022-08-03T10:53:41.091Z,101367.19
2022-08-03T10:56:50.396Z,101444.94
2022-08-03T10:59:28.024Z,101452.88
2022-08-03T11:02:00.321Z,101435.66
2022-08-03T11:04:28.767Z,101401.41
2022-08-03T11:07:24.147Z,101437.41
2022-08-03T11:09:55.892Z,101435.97
2022-08-03T11:12:31.242Z,101430.13
2022-08-03T11:15:10.281Z,101427.41
2022-08-03T11:17:46.150Z,101391.84
2022-08-03T11:20:57.513Z,101435.50
2022-08-03T11:24:02.911Z,101429.72
2022-08-03T11:26:32.410Z,101411.56
2022-08-03T11:29:28.886Z,101429.69
2022-08-03T11:31:55.419Z,101425.38
2022-08-03T11:34:21.955Z,101393.63
2022-08-03T11:37:28.530Z,101434.44
2022-08-03T11:39:56.627Z,101423.66
2022-08-03T11:42:23.009Z,101442.75
2022-08-03T11:44:59.467Z,101433.41
2022-08-03T11:47:30.105Z,101413.38
2022-08-03T11:50:00.356Z,101428.78
2022-08-03T11:52:28.928Z,101429.56
2022-08-03T11:54:56.450Z,101399.94
2022-08-03T11:59:10.956Z,101409.09
2022-08-03T12:00:25.989Z,101433.00
2022-08-03T12:03:02.720Z,101420.16
2022-08-03T12:05:51.193Z,101425.09
2022-08-03T12:08:33.344Z,101423.28
2022-08-03T12:11:03.104Z,101424.78
2022-08-03T12:14:45.748Z,101432.59
2022-08-03T12:16:47.229Z,101430.19
2022-08-03T12:19:13.713Z,101390.28
2022-08-03T12:21:56.947Z,101427.66
2022-08-03T12:24:24.041Z,101435.91
2022-08-03T12:26:58.682Z,101419.38
2022-08-03T12:29:26.513Z,101425.63
2022-08-03T12:31:53.108Z,101413.13
2022-08-03T12:34:19.569Z,101375.44
2022-08-03T12:36:53.651Z,101430.97
2022-08-03T12:39:24.561Z,101385.19
2022-08-03T12:41:54.058Z,101420.41
2022-08-03T12:44:30.193Z,101420.22
2022-08-03T12:47:01.115Z,101408.88
2022-08-03T12:49:27.862Z,101420.84
2022-08-03T12:52:03.866Z,101407.91
2022-08-03T12:54:33.452Z,101419.81
2022-08-03T12:57:08.115Z,101423.28
2022-08-03T12:59:42.242Z,101385.25
2022-08-03T13:02:18.408Z,101407.06
2022-08-03T13:04:47.387Z,101360.88
2022-08-03T13:07:15.403Z,101409.34
2022-08-03T13:09:53.762Z,101361.09
2022-08-03T13:12:28.496Z,101391.41
2022-08-03T13:14:56.976Z,101363.88
2022-08-03T13:17:23.936Z,101397.91
2022-08-03T13:19:50.913Z,101365.50
2022-08-03T13:22:23.327Z,101400.34
2022-08-03T13:24:52.224Z,101396.19
2022-08-03T13:28:04.794Z,101389.78
2022-08-03T13:30:07.317Z,101402.06
2022-08-03T13:32:33.950Z,101378.94
2022-08-03T13:35:01.421Z,101366.19
2022-08-03T13:37:28.459Z,101377.38
2022-08-03T13:39:59.406Z,101327.72
2022-08-03T13:42:35.284Z,101354.41
2022-08-03T13:45:03.724Z,101383.91
2022-08-03T13:47:30.465Z,101331.97
2022-08-03T13:50:01.806Z,101329.75
2022-08-03T13:52:30.632Z,101382.66
2022-08-03T13:54:57.074Z,101327.38
2022-08-03T13:58:06.234Z,101368.91
2022-08-03T14:00:11.528Z,101375.38
2022-08-03T14:02:38.081Z,101365.03
2022-08-03T14:05:05.018Z,101327.22
2022-08-03T14:07:31.564Z,101357.53
2022-08-03T14:09:58.013Z,101355.28
2022-08-03T14:12:24.453Z,101319.16
2022-08-03T14:14:50.923Z,101349.88
2022-08-03T14:17:17.479Z,101360.75
2022-08-03T14:19:53.434Z,101351.47
2022-08-03T14:22:21.244Z,101356.88
2022-08-03T14:24:49.174Z,101302.66
2022-08-03T14:27:16.750Z,101292.13
2022-08-03T14:29:43.265Z,101340.53
2022-08-03T14:32:13.329Z,101302.53
2022-08-03T14:34:40.395Z,101292.53
2022-08-03T14:37:06.872Z,101284.38
2022-08-03T14:42:19.795Z,101301.13
2022-08-03T14:44:46.530Z,101333.34
2022-08-03T14:47:13.464Z,101327.13
2022-08-03T14:50:37.961Z,101320.25
2022-08-03T14:52:26.417Z,101315.94
2022-08-03T14:54:52.874Z,101257.09
2022-08-03T14:57:19.431Z,101266.88
2022-08-03T14:59:55.760Z,101308.00
2022-08-03T15:02:24.603Z,101302.66
2022-08-03T15:04:51.750Z,101297.50
2022-08-03T15:07:18.647Z,101262.34
2022-08-03T15:09:45.225Z,101312.03
2022-08-03T15:12:11.885Z,101298.06
2022-08-03T15:14:38.355Z,101306.88
2022-08-03T15:17:05.333Z,101314.38
2022-08-03T15:20:02.164Z,101266.91
2022-08-03T15:22:20.446Z,101294.00
2022-08-03T15:24:47.516Z,101290.25
2022-08-03T15:27:13.977Z,101294.97
2022-08-03T15:30:05.105Z,101288.41
2022-08-03T15:32:26.827Z,101255.81
2022-08-03T15:34:53.277Z,101263.19
2022-08-03T15:37:19.942Z,101294.53
2022-08-03T15:39:59.176Z,101289.41
2022-08-03T15:42:26.927Z,101288.25
2022-08-03T15:44:54.535Z,101270.44
2022-08-03T15:47:21.517Z,101275.38
2022-08-03T15:49:48.228Z,101239.66
2022-08-03T15:52:14.689Z,101270.78
2022-08-03T15:54:41.323Z,101231.63
2022-08-03T15:57:07.822Z,101260.53
2022-08-03T15:59:34.356Z,101267.34
2022-08-03T16:02:00.909Z,101269.03
2022-08-03T16:04:27.437Z,101264.63
2022-08-03T16:06:53.908Z,101231.22
2022-08-03T16:09:24.325Z,101220.50
2022-08-03T16:12:07.084Z,101256.31
2022-08-03T16:14:51.864Z,101247.31
2022-08-03T16:17:19.602Z,101240.34
2022-08-03T16:19:46.334Z,101251.66
2022-08-03T16:22:13.403Z,101213.78
2022-08-03T16:24:41.153Z,101203.84
2022-08-03T16:27:17.369Z,101258.66
2022-08-03T16:29:54.257Z,101255.19
2022-08-03T16:32:20.731Z,101252.41
2022-08-03T16:34:47.149Z,101240.78
2022-08-03T16:37:36.918Z,101257.47
2022-08-03T16:40:00.287Z,101202.09
2022-08-03T16:42:26.784Z,101247.31
2022-08-03T16:44:53.208Z,101254.09
2022-08-03T16:47:22.145Z,101260.25
2022-08-03T16:49:54.715Z,101256.69
2022-08-03T16:52:23.109Z,101259.44
2022-08-03T16:54:53.144Z,101202.59
2022-08-03T16:57:59.463Z,101254.31
2022-08-03T17:00:12.275Z,101243.38
2022-08-03T17:03:00.829Z,101261.88
2022-08-03T17:05:43.793Z,101212.63
2022-08-03T17:08:14.108Z,101246.84
2022-08-03T17:10:42.652Z,101252.78
2022-08-03T17:13:11.977Z,101253.59
2022-08-03T17:15:58.381Z,101230.50
2022-08-03T17:18:33.528Z,101262.78
2022-08-03T17:21:03.726Z,101257.00
2022-08-03T17:23:53.131Z,101206.38
2022-08-03T17:26:22.464Z,101254.59
2022-08-03T17:28:57.202Z,101207.66
2022-08-03T17:31:31.654Z,101246.44
2022-08-03T17:34:00.709Z,101259.78
2022-08-03T17:36:47.599Z,101255.03
2022-08-03T17:39:30.952Z,101246.84
2022-08-03T17:42:29.630Z,101212.56
2022-08-03T17:44:55.733Z,101251.88
2022-08-03T17:47:23.025Z,101259.50
2022-08-03T17:49:55.760Z,101243.09
2022-08-03T17:52:30.734Z,101251.00
2022-08-03T17:55:57.534Z,101246.41
2022-08-03T17:58:04.186Z,101261.38
2022-08-03T18:00:30.978Z,101248.53
2022-08-03T18:03:04.643Z,101267.97
2022-08-03T18:06:10.670Z,101260.22
2022-08-03T18:08:25.623Z,101264.19
2022-08-03T18:11:01.499Z,101252.38
2022-08-03T18:13:44.934Z,101254.97
2022-08-03T18:16:57.316Z,101255.69
2022-08-03T18:20:02.471Z,101222.97
2022-08-03T18:22:12.055Z,101220.16
2022-08-03T18:24:42.133Z,101205.78
2022-08-03T18:27:09.729Z,101249.94
2022-08-03T18:29:36.345Z,101254.47
2022-08-03T18:32:06.107Z,101253.25
2022-08-03T18:34:36.987Z,101240.09
2022-08-03T18:37:26.199Z,101246.75
2022-08-03T18:39:57.888Z,101261.47
2022-08-03T18:42:25.873Z,101261.31
2022-08-03T18:44:56.334Z,101253.72
2022-08-03T18:47:26.434Z,101264.00
2022-08-03T18:50:00.600Z,101267.63
2022-08-03T18:52:37.339Z,101213.22
2022-08-03T18:56:01.660Z,101269.53
2022-08-03T18:58:48.569Z,101257.50
2022-08-03T19:02:00.977Z,101264.34
2022-08-03T19:04:31.314Z,101265.91
2022-08-03T19:07:04.142Z,101261.00
2022-08-03T19:09:40.534Z,101276.16
2022-08-03T19:12:30.963Z,101267.78
2022-08-03T19:15:15.770Z,101266.31
2022-08-03T19:17:50.195Z,101260.84
2022-08-03T19:20:30.158Z,101223.03
2022-08-03T19:22:57.957Z,101259.84
2022-08-03T19:25:35.240Z,101230.22
2022-08-03T19:28:03.631Z,101241.78
2022-08-03T19:30:40.214Z,101238.00
2022-08-03T19:33:12.672Z,101231.81
2022-08-03T19:35:51.538Z,101232.09
2022-08-03T19:38:28.486Z,101283.50
2022-08-03T19:41:02.044Z,101264.53
2022-08-03T19:43:52.914Z,101282.09
2022-08-03T19:46:30.287Z,101259.00
2022-08-03T19:49:04.535Z,101238.88
2022-08-03T19:51:59.035Z,101271.50
2022-08-03T19:54:29.803Z,101263.53
2022-08-03T19:57:00.325Z,101282.78
2022-08-03T19:59:29.433Z,101284.06
2022-08-03T20:01:55.950Z,101284.06
2022-08-03T20:04:22.504Z,101283.91
2022-08-03T20:06:51.994Z,101275.91
2022-08-03T20:09:20.438Z,101275.66
2022-08-03T20:11:47.724Z,101259.59
2022-08-03T20:14:20.815Z,101282.00
2022-08-03T20:16:52.998Z,101269.56
2022-08-03T20:19:20.006Z,101282.97
2022-08-03T20:21:48.237Z,101280.13
2022-08-03T20:24:36.630Z,101284.00
2022-08-03T20:27:08.563Z,101257.91
2022-08-03T20:30:05.061Z,101265.94
2022-08-03T20:32:26.235Z,101279.69
2022-08-03T20:34:53.279Z,101254.72
2022-08-03T20:37:20.001Z,101279.13
2022-08-03T20:39:48.204Z,101276.94
2022-08-03T20:42:21.787Z,101282.09
2022-08-03T20:47:50.613Z,101233.13
2022-08-03T20:50:18.160Z,101273.94
2022-08-03T20:52:49.997Z,101259.81
2022-08-03T20:55:18.046Z,101256.88
2022-08-03T20:57:49.196Z,101271.22
2022-08-03T21:00:18.370Z,101265.44
2022-08-03T21:02:44.829Z,101268.09
2022-08-03T21:05:11.717Z,101259.69
2022-08-03T21:08:04.096Z,101217.84
2022-08-03T21:10:31.220Z,101255.97
2022-08-03T21:13:07.320Z,101280.94
2022-08-03T21:13:16.232Z,101253.03
2022-08-03T21:16:02.314Z,101255.72
2022-08-03T21:18:38.548Z,101218.00
2022-08-03T21:21:06.708Z,101269.31
2022-08-03T21:23:47.726Z,101207.16
2022-08-03T21:26:17.823Z,101263.25
2022-08-03T21:28:46.809Z,101209.59
2022-08-03T21:31:14.749Z,101258.72
2022-08-03T21:33:53.590Z,101212.72
2022-08-03T21:36:20.116Z,101234.75
2022-08-03T21:38:47.475Z,101238.19
2022-08-03T21:41:22.698Z,101238.59
2022-08-03T21:43:49.172Z,101245.00
2022-08-03T21:46:19.211Z,101233.53
2022-08-03T21:48:47.920Z,101195.34
2022-08-03T21:51:16.779Z,101249.56
2022-08-03T21:54:02.746Z,101199.56
2022-08-03T21:56:35.239Z,101243.72
2022-08-03T21:59:05.530Z,101244.75
2022-08-03T22:01:35.479Z,101231.53
2022-08-03T22:04:05.043Z,101238.34
2022-08-03T22:06:33.648Z,101212.53
2022-08-03T22:09:01.014Z,101210.59
2022-08-03T22:11:27.656Z,101182.97
2022-08-03T22:13:54.160Z,101243.94
2022-08-03T22:16:21.214Z,101233.22
2022-08-03T22:18:47.675Z,101219.72
2022-08-03T22:21:16.473Z,101214.38
2022-08-03T22:23:58.380Z,101183.94
2022-08-03T22:26:32.420Z,101233.56
2022-08-03T22:29:06.876Z,101231.53
2022-08-03T22:31:58.628Z,101230.59
2022-08-03T22:34:26.678Z,101233.44
2022-08-03T22:36:57.199Z,101232.28
2022-08-03T22:39:28.386Z,101241.91
2022-08-03T22:41:57.452Z,101236.19
2022-08-03T22:44:24.520Z,101181.59
2022-08-03T22:46:51.649Z,101229.94
2022-08-03T22:49:18.294Z,101239.28
2022-08-03T22:51:44.963Z,101210.34
2022-08-03T22:54:11.862Z,101238.34
2022-08-03T22:56:38.793Z,101224.44
2022-08-03T22:59:40.390Z,101222.16
2022-08-03T23:02:00.405Z,101220.50
2022-08-03T23:04:29.441Z,101211.72
2022-08-03T23:06:58.185Z,101228.50
2022-08-03T23:09:24.865Z,101227.13
2022-08-03T23:11:55.260Z,101229.75
2022-08-03T23:14:22.879Z,101226.69
2022-08-03T23:16:51.810Z,101222.91
2022-08-03T23:19:25.096Z,101233.25
2022-08-03T23:22:02.845Z,101231.56
2022-08-03T23:24:33.728Z,101224.84
2022-08-03T23:27:03.294Z,101199.56
2022-08-03T23:29:31.135Z,101223.00
2022-08-03T23:31:58.316Z,101231.81
2022-08-03T23:34:25.875Z,101230.16
2022-08-03T23:36:53.726Z,101200.28
2022-08-03T23:39:22.499Z,101234.84
2022-08-03T23:41:49.551Z,101186.25
2022-08-03T23:44:16.708Z,101247.63
2022-08-03T23:46:44.356Z,101234.31
2022-08-03T23:49:10.804Z,101229.69
2022-08-03T23:51:56.585Z,101237.84
2022-08-03T23:54:56.939Z,101232.25
2022-08-03T23:57:29.422Z,101230.81
